TAF and METAR

Decoding for American and Canadian METARs and TAFs is not fully implemented.

Could not understand the following METAR

PAKP 191956Z AUTO 20005KT 10SM OVC110 M06/M08 A2954 RMK AO2 SLP054 T10561078 FZRANO
No TAF available for Anaktuvuk Pass Airport
Anaktuvuk Pass Airport in United States of America at 642m

Latest 5 airports